createdAt,value
2022-10-06T00:00:13.412Z,235.00
2022-10-06T00:01:13.451Z,233.00
2022-10-06T00:02:13.419Z,230.00
2022-10-06T00:03:13.365Z,229.00
2022-10-06T00:04:13.376Z,227.00
2022-10-06T00:05:13.354Z,226.00
2022-10-06T00:06:13.309Z,231.00
2022-10-06T00:07:13.317Z,232.00
2022-10-06T00:08:13.279Z,231.00
2022-10-06T00:09:13.305Z,231.00
2022-10-06T00:10:13.266Z,231.00
2022-10-06T00:11:13.238Z,227.00
2022-10-06T00:12:13.264Z,226.00
2022-10-06T00:13:13.213Z,229.00
2022-10-06T00:14:13.204Z,228.00
2022-10-06T00:15:13.200Z,230.00
2022-10-06T00:16:13.269Z,235.00
2022-10-06T00:17:13.191Z,240.00
2022-10-06T00:18:13.159Z,241.00
2022-10-06T00:19:13.145Z,240.00
2022-10-06T00:20:13.134Z,237.00
2022-10-06T00:21:13.129Z,244.00
2022-10-06T00:22:13.111Z,249.00
2022-10-06T00:23:13.113Z,254.00
2022-10-06T00:24:13.089Z,256.00
2022-10-06T00:25:13.051Z,256.00
2022-10-06T00:26:13.063Z,256.00
2022-10-06T00:27:13.059Z,256.00
2022-10-06T00:28:13.087Z,259.00
2022-10-06T00:29:13.011Z,259.00
2022-10-06T00:30:12.983Z,262.00
2022-10-06T00:31:13.034Z,256.00
2022-10-06T00:32:12.958Z,262.00
2022-10-06T00:33:12.944Z,252.00
2022-10-06T00:34:12.982Z,264.00
2022-10-06T00:35:12.937Z,264.00
2022-10-06T00:36:12.959Z,266.00
2022-10-06T00:37:12.896Z,271.00
2022-10-06T00:38:12.898Z,258.00
2022-10-06T00:39:12.869Z,245.00
2022-10-06T00:40:12.850Z,258.00
2022-10-06T00:41:12.844Z,257.00
2022-10-06T00:42:12.862Z,258.00
2022-10-06T00:43:12.819Z,262.00
2022-10-06T00:44:12.802Z,254.00
2022-10-06T00:45:12.838Z,256.00
2022-10-06T00:46:12.949Z,252.00
2022-10-06T00:47:12.782Z,244.00
2022-10-06T00:48:12.747Z,243.00
2022-10-06T00:49:12.756Z,240.00
2022-10-06T00:50:12.718Z,235.00
2022-10-06T00:51:12.711Z,228.00
2022-10-06T00:52:12.721Z,223.00
2022-10-06T00:53:12.707Z,211.00
2022-10-06T00:54:12.659Z,211.00
2022-10-06T00:55:12.675Z,210.00
2022-10-06T00:56:12.655Z,210.00
2022-10-06T00:57:12.637Z,214.00
2022-10-06T00:58:12.629Z,214.00
2022-10-06T00:59:12.604Z,215.00
2022-10-06T01:00:12.603Z,220.00
2022-10-06T01:01:12.641Z,230.00
2022-10-06T01:02:12.576Z,252.00
2022-10-06T01:03:12.548Z,249.00
2022-10-06T01:04:12.575Z,237.00
2022-10-06T01:05:12.579Z,253.00
2022-10-06T01:06:12.517Z,258.00
2022-10-06T01:07:12.506Z,263.00
2022-10-06T01:08:12.473Z,259.00
2022-10-06T01:09:12.495Z,257.00
2022-10-06T01:10:12.475Z,266.00
2022-10-06T01:11:12.451Z,274.00
2022-10-06T01:12:12.431Z,280.00
2022-10-06T01:13:12.438Z,281.00
2022-10-06T01:14:12.427Z,285.00
2022-10-06T01:15:12.393Z,284.00
2022-10-06T01:16:12.439Z,274.00
2022-10-06T01:17:12.382Z,283.00
2022-10-06T01:18:12.362Z,287.00
2022-10-06T01:19:12.345Z,287.00
2022-10-06T01:20:12.353Z,276.00
2022-10-06T01:21:12.350Z,273.00
2022-10-06T01:22:12.298Z,269.00
2022-10-06T01:23:12.332Z,279.00
2022-10-06T01:24:12.377Z,273.00
2022-10-06T01:25:12.286Z,279.00
2022-10-06T01:26:12.278Z,284.00
2022-10-06T01:27:12.251Z,276.00
2022-10-06T01:28:12.286Z,273.00
2022-10-06T01:29:12.228Z,282.00
2022-10-06T01:30:12.188Z,280.00
2022-10-06T01:31:12.250Z,292.00
2022-10-06T01:32:12.168Z,289.00
2022-10-06T01:33:12.170Z,285.00
2022-10-06T01:34:12.143Z,266.00
2022-10-06T01:35:12.155Z,282.00
2022-10-06T01:36:12.140Z,274.00
2022-10-06T01:37:12.102Z,277.00
2022-10-06T01:38:12.121Z,277.00
2022-10-06T01:39:12.098Z,285.00
2022-10-06T01:40:12.091Z,281.00
2022-10-06T01:41:12.054Z,254.00
2022-10-06T01:42:12.041Z,280.00
2022-10-06T01:43:12.031Z,269.00
2022-10-06T01:44:12.038Z,264.00
2022-10-06T01:45:12.017Z,264.00
2022-10-06T01:46:12.044Z,267.00
2022-10-06T01:47:11.996Z,262.00
2022-10-06T01:48:11.952Z,270.00
2022-10-06T01:49:11.955Z,272.00
2022-10-06T01:50:11.922Z,272.00
2022-10-06T01:51:11.920Z,277.00
2022-10-06T01:52:11.919Z,282.00
2022-10-06T01:53:11.928Z,273.00
2022-10-06T01:54:11.889Z,274.00
2022-10-06T01:55:11.875Z,287.00
2022-10-06T01:56:11.842Z,292.00
2022-10-06T01:57:11.855Z,281.00
2022-10-06T01:58:11.848Z,288.00
2022-10-06T01:59:11.828Z,283.00
2022-10-06T02:00:11.813Z,282.00
2022-10-06T02:01:11.838Z,277.00
2022-10-06T02:02:11.789Z,279.00
2022-10-06T02:03:11.780Z,278.00
2022-10-06T02:04:11.862Z,278.00
2022-10-06T02:05:11.757Z,283.00
2022-10-06T02:06:11.828Z,270.00
2022-10-06T02:07:11.737Z,270.00
2022-10-06T02:08:11.737Z,278.00
2022-10-06T02:09:11.682Z,270.00
2022-10-06T02:10:11.671Z,262.00
2022-10-06T02:11:11.678Z,265.00
2022-10-06T02:12:11.636Z,254.00
2022-10-06T02:13:11.632Z,261.00
2022-10-06T02:14:11.649Z,270.00
2022-10-06T02:15:11.630Z,255.00
2022-10-06T02:16:11.639Z,262.00
2022-10-06T02:17:11.584Z,258.00
2022-10-06T02:18:11.565Z,260.00
2022-10-06T02:19:11.567Z,244.00
2022-10-06T02:20:11.553Z,248.00
2022-10-06T02:21:11.521Z,243.00
2022-10-06T02:22:11.531Z,236.00
2022-10-06T02:23:11.516Z,237.00
2022-10-06T02:24:11.512Z,234.00
2022-10-06T02:25:11.503Z,232.00
2022-10-06T02:26:11.458Z,226.00
2022-10-06T02:27:11.483Z,240.00
2022-10-06T02:28:11.476Z,230.00
2022-10-06T02:29:11.437Z,238.00
2022-10-06T02:30:11.402Z,237.00
2022-10-06T02:31:11.465Z,242.00
2022-10-06T02:32:11.409Z,234.00
2022-10-06T02:33:11.393Z,228.00
2022-10-06T02:34:11.358Z,230.00
2022-10-06T02:35:11.376Z,233.00
2022-10-06T02:36:11.328Z,233.00
2022-10-06T02:37:11.520Z,235.00
2022-10-06T02:38:11.316Z,221.00
2022-10-06T02:39:11.317Z,228.00
2022-10-06T02:40:11.297Z,225.00
2022-10-06T02:41:11.286Z,224.00
2022-10-06T02:42:11.251Z,227.00
2022-10-06T02:43:11.242Z,229.00
2022-10-06T02:44:11.240Z,231.00
2022-10-06T02:45:11.227Z,227.00
2022-10-06T02:46:11.225Z,221.00
2022-10-06T02:47:11.201Z,227.00
2022-10-06T02:48:11.208Z,230.00
2022-10-06T02:49:11.199Z,226.00
2022-10-06T02:50:11.176Z,232.00
2022-10-06T02:51:11.167Z,228.00
2022-10-06T02:52:11.143Z,224.00
2022-10-06T02:53:11.114Z,229.00
2022-10-06T02:54:11.116Z,233.00
2022-10-06T02:55:11.138Z,234.00
2022-10-06T02:56:11.094Z,235.00
2022-10-06T02:57:11.070Z,233.00
2022-10-06T02:58:11.066Z,236.00
2022-10-06T02:59:11.057Z,239.00
2022-10-06T03:00:11.047Z,235.00
2022-10-06T03:01:11.046Z,226.00
2022-10-06T03:02:11.152Z,215.00
2022-10-06T03:03:10.996Z,224.00
2022-10-06T03:04:10.987Z,227.00
2022-10-06T03:05:10.973Z,233.00
2022-10-06T03:06:10.941Z,233.00
2022-10-06T03:07:10.932Z,228.00
2022-10-06T03:08:10.919Z,225.00
2022-10-06T03:09:10.930Z,223.00
2022-10-06T03:10:10.933Z,225.00
2022-10-06T03:11:10.909Z,225.00
2022-10-06T03:12:10.870Z,224.00
2022-10-06T03:13:10.866Z,224.00
2022-10-06T03:14:10.842Z,225.00
2022-10-06T03:15:10.859Z,221.00
2022-10-06T03:16:10.858Z,218.00
2022-10-06T03:17:11.450Z,222.00
2022-10-06T03:18:11.174Z,229.00
2022-10-06T03:19:10.796Z,233.00
2022-10-06T03:20:10.787Z,230.00
2022-10-06T03:21:10.749Z,228.00
2022-10-06T03:22:10.755Z,227.00
2022-10-06T03:23:13.538Z,231.00
2022-10-06T03:24:10.740Z,228.00
2022-10-06T03:25:10.693Z,233.00
2022-10-06T03:26:10.706Z,238.00
2022-10-06T03:27:10.703Z,259.00
2022-10-06T03:28:10.723Z,255.00
2022-10-06T03:29:11.809Z,259.00
2022-10-06T03:30:10.650Z,262.00
2022-10-06T03:31:10.663Z,260.00
2022-10-06T03:32:10.636Z,255.00
2022-10-06T03:33:10.624Z,258.00
2022-10-06T03:34:10.590Z,270.00
2022-10-06T03:35:10.561Z,257.00
2022-10-06T03:36:10.588Z,261.00
2022-10-06T03:37:10.584Z,257.00
2022-10-06T03:38:10.554Z,260.00
2022-10-06T03:39:10.533Z,275.00
2022-10-06T03:40:10.526Z,257.00
2022-10-06T03:41:10.500Z,274.00
2022-10-06T03:42:10.485Z,272.00
2022-10-06T03:43:10.472Z,261.00
2022-10-06T03:44:10.469Z,278.00
2022-10-06T03:45:10.442Z,276.00
2022-10-06T03:46:10.478Z,279.00
2022-10-06T03:47:16.113Z,277.00
2022-10-06T03:48:10.421Z,276.00
2022-10-06T03:49:10.397Z,272.00
2022-10-06T03:50:10.416Z,268.00
2022-10-06T03:51:10.359Z,263.00
2022-10-06T03:52:10.359Z,259.00
2022-10-06T03:53:10.362Z,267.00
2022-10-06T03:54:10.346Z,270.00
2022-10-06T03:55:10.363Z,269.00
2022-10-06T03:56:10.338Z,273.00
2022-10-06T03:57:10.292Z,268.00
2022-10-06T03:58:10.274Z,265.00
2022-10-06T03:59:10.278Z,265.00
2022-10-06T04:00:10.525Z,262.00
2022-10-06T04:01:10.325Z,270.00
2022-10-06T04:02:10.285Z,266.00
2022-10-06T04:03:10.211Z,255.00
2022-10-06T04:04:10.221Z,285.00
2022-10-06T04:05:10.311Z,278.00
2022-10-06T04:06:10.189Z,265.00
2022-10-06T04:07:10.153Z,269.00
2022-10-06T04:08:10.152Z,255.00
2022-10-06T04:09:14.749Z,257.00
2022-10-06T04:10:10.129Z,262.00
2022-10-06T04:11:10.151Z,259.00
2022-10-06T04:12:10.106Z,256.00
2022-10-06T04:13:10.078Z,254.00
2022-10-06T04:14:10.106Z,258.00
2022-10-06T04:15:10.075Z,273.00
2022-10-06T04:16:10.085Z,258.00
2022-10-06T04:17:10.031Z,261.00
2022-10-06T04:18:10.022Z,252.00
2022-10-06T04:19:10.024Z,239.00
2022-10-06T04:20:10.003Z,241.00
2022-10-06T04:21:09.982Z,249.00
2022-10-06T04:22:09.967Z,261.00
2022-10-06T04:23:09.955Z,255.00
2022-10-06T04:24:10.007Z,251.00
2022-10-06T04:25:09.952Z,250.00
2022-10-06T04:26:09.972Z,254.00
2022-10-06T04:27:09.919Z,257.00
2022-10-06T04:28:09.925Z,273.00
2022-10-06T04:29:09.906Z,269.00
2022-10-06T04:30:09.898Z,274.00
2022-10-06T04:31:09.941Z,273.00
2022-10-06T04:32:09.866Z,266.00
2022-10-06T04:33:09.837Z,290.00
2022-10-06T04:34:09.811Z,259.00
2022-10-06T04:35:09.824Z,266.00
2022-10-06T04:36:09.850Z,248.00
2022-10-06T04:37:09.769Z,267.00
2022-10-06T04:38:09.755Z,266.00
2022-10-06T04:39:09.750Z,271.00
2022-10-06T04:40:09.761Z,265.00
2022-10-06T04:41:09.716Z,265.00
2022-10-06T04:42:09.724Z,274.00
2022-10-06T04:43:09.709Z,269.00
2022-10-06T04:44:09.714Z,251.00
2022-10-06T04:45:09.693Z,267.00
2022-10-06T04:46:37.698Z,246.00
2022-10-06T04:47:09.663Z,280.00
2022-10-06T04:48:10.280Z,267.00
2022-10-06T04:49:12.276Z,275.00
2022-10-06T04:50:09.645Z,269.00
2022-10-06T04:51:09.581Z,276.00
2022-10-06T04:52:09.574Z,278.00
2022-10-06T04:53:09.556Z,278.00
2022-10-06T04:54:09.552Z,288.00
2022-10-06T04:55:09.550Z,267.00
2022-10-06T04:56:09.521Z,272.00
2022-10-06T04:57:09.505Z,266.00
2022-10-06T04:58:09.516Z,268.00
2022-10-06T04:59:09.505Z,268.00
2022-10-06T05:00:14.041Z,288.00
2022-10-06T05:01:09.503Z,284.00
2022-10-06T05:02:09.487Z,263.00
2022-10-06T05:03:09.426Z,271.00
2022-10-06T05:04:09.415Z,264.00
2022-10-06T05:05:09.450Z,270.00
2022-10-06T05:06:09.412Z,269.00
2022-10-06T05:07:09.385Z,273.00
2022-10-06T05:08:09.368Z,290.00
2022-10-06T05:09:09.366Z,289.00
2022-10-06T05:10:09.363Z,314.00
2022-10-06T05:11:11.639Z,272.00
2022-10-06T05:12:09.360Z,269.00
2022-10-06T05:13:09.325Z,265.00
2022-10-06T05:14:09.294Z,268.00
2022-10-06T05:15:09.266Z,266.00
2022-10-06T05:16:09.375Z,263.00
2022-10-06T05:17:09.249Z,265.00
2022-10-06T05:18:09.260Z,272.00
2022-10-06T05:19:09.209Z,270.00
2022-10-06T05:20:09.217Z,273.00
2022-10-06T05:21:09.221Z,279.00
2022-10-06T05:22:09.219Z,274.00
2022-10-06T05:23:09.191Z,275.00
2022-10-06T05:24:09.186Z,270.00
2022-10-06T05:25:09.132Z,266.00
2022-10-06T05:26:09.161Z,270.00
2022-10-06T05:27:09.128Z,278.00
2022-10-06T05:28:09.222Z,293.00
2022-10-06T05:29:09.139Z,266.00
2022-10-06T05:30:09.064Z,251.00
2022-10-06T05:31:09.051Z,254.00
2022-10-06T05:32:09.158Z,261.00
2022-10-06T05:33:09.055Z,257.00
2022-10-06T05:34:09.059Z,255.00
2022-10-06T05:35:09.049Z,253.00
2022-10-06T05:36:09.008Z,258.00
2022-10-06T05:37:08.978Z,265.00
2022-10-06T05:38:08.968Z,265.00
2022-10-06T05:39:08.991Z,267.00
2022-10-06T05:40:08.952Z,259.00
2022-10-06T05:41:08.960Z,266.00
2022-10-06T05:42:08.923Z,268.00
2022-10-06T05:43:08.913Z,267.00
2022-10-06T05:44:08.921Z,274.00
2022-10-06T05:45:08.888Z,266.00
2022-10-06T05:46:08.964Z,265.00
2022-10-06T05:47:08.860Z,272.00
2022-10-06T05:48:08.855Z,274.00
2022-10-06T05:49:08.837Z,272.00
2022-10-06T05:50:08.823Z,272.00
2022-10-06T05:51:08.820Z,270.00
2022-10-06T05:52:08.814Z,269.00
2022-10-06T05:53:08.792Z,270.00
2022-10-06T05:54:08.770Z,263.00
2022-10-06T05:55:08.750Z,255.00
2022-10-06T05:56:08.751Z,269.00
2022-10-06T05:57:08.736Z,266.00
2022-10-06T05:58:08.700Z,275.00
2022-10-06T05:59:08.681Z,272.00
2022-10-06T06:00:08.726Z,278.00
2022-10-06T06:01:08.678Z,280.00
2022-10-06T06:02:08.737Z,271.00
2022-10-06T06:03:08.663Z,272.00
2022-10-06T06:04:08.654Z,272.00
2022-10-06T06:05:08.637Z,265.00
2022-10-06T06:06:08.597Z,270.00
2022-10-06T06:07:08.603Z,259.00
2022-10-06T06:08:08.600Z,260.00
2022-10-06T06:09:08.559Z,262.00
2022-10-06T06:10:08.545Z,265.00
2022-10-06T06:11:08.542Z,246.00
2022-10-06T06:12:08.533Z,260.00
2022-10-06T06:13:08.499Z,259.00
2022-10-06T06:14:08.494Z,256.00
2022-10-06T06:15:08.496Z,250.00
2022-10-06T06:16:08.536Z,236.00
2022-10-06T06:17:08.463Z,256.00
2022-10-06T06:18:08.454Z,260.00
2022-10-06T06:19:08.451Z,245.00
2022-10-06T06:20:08.432Z,244.00
2022-10-06T06:21:08.423Z,246.00
2022-10-06T06:22:08.414Z,236.00
2022-10-06T06:23:08.391Z,233.00
2022-10-06T06:24:08.384Z,222.00
2022-10-06T06:25:08.345Z,221.00
2022-10-06T06:26:08.342Z,212.00
2022-10-06T06:27:08.339Z,224.00
2022-10-06T06:28:08.408Z,218.00
2022-10-06T06:29:08.313Z,215.00
2022-10-06T06:30:08.306Z,206.00
2022-10-06T06:31:08.340Z,207.00
2022-10-06T06:32:08.281Z,211.00
2022-10-06T06:33:08.300Z,212.00
2022-10-06T06:34:08.268Z,214.00
2022-10-06T06:35:08.216Z,218.00
2022-10-06T06:36:08.245Z,223.00
2022-10-06T06:37:12.849Z,224.00
2022-10-06T06:38:08.213Z,227.00
2022-10-06T06:39:08.172Z,225.00
2022-10-06T06:40:08.197Z,223.00
2022-10-06T06:41:08.177Z,224.00
2022-10-06T06:42:08.154Z,219.00
2022-10-06T06:43:08.119Z,224.00
2022-10-06T06:44:08.162Z,227.00
2022-10-06T06:45:08.108Z,227.00
2022-10-06T06:46:08.191Z,240.00
2022-10-06T06:47:08.080Z,214.00
2022-10-06T06:48:08.048Z,217.00
2022-10-06T06:49:08.053Z,222.00
2022-10-06T06:50:08.058Z,231.00
2022-10-06T06:51:08.039Z,236.00
2022-10-06T06:52:08.020Z,242.00
2022-10-06T06:53:08.255Z,246.00
2022-10-06T06:54:08.002Z,242.00
2022-10-06T06:55:07.983Z,235.00
2022-10-06T06:56:07.950Z,240.00
2022-10-06T06:57:07.939Z,237.00
2022-10-06T06:58:07.955Z,236.00
2022-10-06T06:59:07.955Z,239.00
2022-10-06T07:00:07.923Z,248.00
2022-10-06T07:01:07.972Z,244.00
2022-10-06T07:02:07.946Z,246.00
2022-10-06T07:03:07.873Z,253.00
2022-10-06T07:04:07.863Z,270.00
2022-10-06T07:05:07.828Z,266.00
2022-10-06T07:06:07.857Z,267.00
2022-10-06T07:07:07.817Z,265.00
2022-10-06T07:08:07.794Z,257.00
2022-10-06T07:09:07.788Z,258.00
2022-10-06T07:10:07.786Z,259.00
2022-10-06T07:11:07.747Z,256.00
2022-10-06T07:12:07.759Z,259.00
2022-10-06T07:13:07.721Z,264.00
2022-10-06T07:14:07.708Z,266.00
2022-10-06T07:15:07.738Z,270.00
2022-10-06T07:16:07.781Z,271.00
2022-10-06T07:17:07.664Z,268.00
2022-10-06T07:18:07.663Z,272.00
2022-10-06T07:19:07.660Z,272.00
2022-10-06T07:20:07.651Z,270.00
2022-10-06T07:21:07.634Z,270.00
2022-10-06T07:22:07.624Z,271.00
2022-10-06T07:23:07.613Z,273.00
2022-10-06T07:24:07.581Z,274.00
2022-10-06T07:25:07.675Z,273.00
2022-10-06T07:26:07.678Z,274.00
2022-10-06T07:27:07.533Z,276.00
2022-10-06T07:28:07.688Z,277.00
2022-10-06T07:29:07.515Z,279.00
2022-10-06T07:30:07.513Z,281.00
2022-10-06T07:31:07.534Z,282.00
2022-10-06T07:32:07.485Z,282.00
2022-10-06T07:33:07.459Z,283.00
2022-10-06T07:34:07.449Z,285.00
2022-10-06T07:35:07.427Z,285.00
2022-10-06T07:36:07.413Z,284.00
2022-10-06T07:37:07.425Z,286.00
2022-10-06T07:38:07.415Z,285.00
2022-10-06T07:39:07.408Z,284.00
2022-10-06T07:40:07.406Z,283.00
2022-10-06T07:41:18.371Z,284.00
2022-10-06T07:42:07.353Z,285.00
2022-10-06T07:43:07.328Z,282.00
2022-10-06T07:44:08.266Z,283.00
2022-10-06T07:45:07.303Z,283.00
2022-10-06T07:46:07.413Z,283.00
2022-10-06T07:47:07.273Z,283.00
2022-10-06T07:48:07.299Z,284.00
2022-10-06T07:49:07.262Z,283.00
2022-10-06T07:50:07.243Z,282.00
2022-10-06T07:51:07.250Z,281.00
2022-10-06T07:52:07.214Z,282.00
2022-10-06T07:53:07.187Z,281.00
2022-10-06T07:54:07.193Z,283.00
2022-10-06T07:55:07.180Z,284.00
2022-10-06T07:56:07.194Z,286.00
2022-10-06T07:57:07.136Z,286.00
2022-10-06T07:58:07.118Z,286.00
2022-10-06T07:59:07.134Z,285.00
2022-10-06T08:00:07.112Z,286.00
2022-10-06T08:01:07.085Z,284.00
2022-10-06T08:02:07.164Z,282.00
2022-10-06T08:03:07.150Z,283.00
2022-10-06T08:04:07.149Z,284.00
2022-10-06T08:05:07.053Z,284.00
2022-10-06T08:06:07.045Z,285.00
2022-10-06T08:07:07.018Z,285.00
2022-10-06T08:08:07.007Z,285.00
2022-10-06T08:09:06.981Z,283.00
2022-10-06T08:10:06.975Z,285.00
2022-10-06T08:11:06.977Z,286.00
2022-10-06T08:12:06.995Z,286.00
2022-10-06T08:13:06.953Z,286.00
2022-10-06T08:14:06.921Z,287.00
2022-10-06T08:15:07.684Z,287.00
2022-10-06T08:16:06.932Z,289.00
2022-10-06T08:17:06.895Z,290.00
2022-10-06T08:18:21.305Z,287.00
2022-10-06T08:19:06.862Z,285.00
2022-10-06T08:20:06.839Z,285.00
2022-10-06T08:21:06.819Z,286.00
2022-10-06T08:22:06.801Z,284.00
2022-10-06T08:23:06.799Z,284.00
2022-10-06T08:24:06.777Z,285.00
2022-10-06T08:25:07.395Z,284.00
2022-10-06T08:26:06.767Z,286.00
2022-10-06T08:27:06.761Z,287.00
2022-10-06T08:28:06.740Z,287.00
2022-10-06T08:29:06.748Z,287.00
2022-10-06T08:30:06.707Z,288.00
2022-10-06T08:31:06.775Z,288.00
2022-10-06T08:32:06.705Z,288.00
2022-10-06T08:33:06.668Z,287.00
2022-10-06T08:34:10.128Z,288.00
2022-10-06T08:35:06.670Z,286.00
2022-10-06T08:36:06.636Z,285.00
2022-10-06T08:37:19.836Z,285.00
2022-10-06T08:38:06.597Z,284.00
2022-10-06T08:39:06.587Z,282.00
2022-10-06T08:40:06.579Z,283.00
2022-10-06T08:41:06.552Z,281.00
2022-10-06T08:42:06.579Z,280.00
2022-10-06T08:43:06.551Z,279.00
2022-10-06T08:44:06.510Z,279.00
2022-10-06T08:45:06.521Z,279.00
2022-10-06T08:46:06.516Z,276.00
2022-10-06T08:47:06.479Z,277.00
2022-10-06T08:48:06.484Z,283.00
2022-10-06T08:49:06.456Z,286.00
2022-10-06T08:50:06.457Z,290.00
2022-10-06T08:51:06.440Z,287.00
2022-10-06T08:52:06.426Z,289.00
2022-10-06T08:53:06.398Z,293.00
2022-10-06T08:54:06.410Z,291.00
2022-10-06T08:55:06.387Z,293.00
2022-10-06T08:56:06.356Z,295.00
2022-10-06T08:57:06.375Z,297.00
2022-10-06T08:58:06.353Z,298.00
2022-10-06T08:59:06.387Z,297.00
2022-10-06T09:00:06.304Z,297.00
2022-10-06T09:01:06.350Z,298.00
2022-10-06T09:02:06.349Z,296.00
2022-10-06T09:03:06.289Z,296.00
2022-10-06T09:04:06.267Z,295.00
2022-10-06T09:05:06.266Z,300.00
2022-10-06T09:06:06.227Z,301.00
2022-10-06T09:07:11.245Z,302.00
2022-10-06T09:08:06.228Z,304.00
2022-10-06T09:09:06.218Z,306.00
2022-10-06T09:10:06.194Z,308.00
2022-10-06T09:11:06.176Z,311.00
2022-10-06T09:12:06.170Z,310.00
2022-10-06T09:13:06.171Z,308.00
2022-10-06T09:14:06.115Z,295.00
2022-10-06T09:15:06.130Z,295.00
2022-10-06T09:16:06.155Z,302.00
2022-10-06T09:17:06.086Z,305.00
2022-10-06T09:18:06.093Z,307.00
2022-10-06T09:19:09.663Z,298.00
2022-10-06T09:20:06.060Z,308.00
2022-10-06T09:21:06.061Z,305.00
2022-10-06T09:22:06.053Z,305.00
2022-10-06T09:23:06.049Z,308.00
2022-10-06T09:24:05.988Z,312.00
2022-10-06T09:25:06.006Z,312.00
2022-10-06T09:26:05.992Z,312.00
2022-10-06T09:27:05.971Z,312.00
2022-10-06T09:28:06.017Z,314.00
2022-10-06T09:29:05.930Z,313.00
2022-10-06T09:30:05.934Z,313.00
2022-10-06T09:31:05.944Z,316.00
2022-10-06T09:32:05.897Z,313.00
2022-10-06T09:33:05.912Z,312.00
2022-10-06T09:34:05.880Z,315.00
2022-10-06T09:35:05.868Z,315.00
2022-10-06T09:36:05.833Z,319.00
2022-10-06T09:37:05.849Z,319.00
2022-10-06T09:38:09.053Z,318.00
2022-10-06T09:39:05.837Z,320.00
2022-10-06T09:40:05.832Z,316.00
2022-10-06T09:41:05.852Z,311.00
2022-10-06T09:42:05.793Z,312.00
2022-10-06T09:43:05.776Z,313.00
2022-10-06T09:44:05.758Z,312.00
2022-10-06T09:45:05.780Z,311.00
2022-10-06T09:46:05.792Z,311.00
2022-10-06T09:47:05.706Z,311.00
2022-10-06T09:48:05.711Z,314.00
2022-10-06T09:49:05.816Z,314.00
2022-10-06T09:50:05.719Z,317.00
2022-10-06T09:51:05.664Z,318.00
2022-10-06T09:52:05.639Z,318.00
2022-10-06T09:53:05.633Z,318.00
2022-10-06T09:54:05.623Z,316.00
2022-10-06T09:55:05.627Z,319.00
2022-10-06T09:56:05.581Z,314.00
2022-10-06T09:57:05.638Z,310.00
2022-10-06T09:58:05.608Z,312.00
2022-10-06T09:59:05.606Z,314.00
2022-10-06T10:00:05.533Z,322.00
2022-10-06T10:01:05.635Z,319.00
2022-10-06T10:02:05.500Z,318.00
2022-10-06T10:03:05.587Z,317.00
2022-10-06T10:04:20.023Z,319.00
2022-10-06T10:05:05.507Z,319.00
2022-10-06T10:06:05.450Z,320.00
2022-10-06T10:07:05.447Z,320.00
2022-10-06T10:08:05.417Z,328.00
2022-10-06T10:09:05.432Z,329.00
2022-10-06T10:10:05.400Z,327.00
2022-10-06T10:11:05.425Z,317.00
2022-10-06T10:12:05.414Z,315.00
2022-10-06T10:13:05.383Z,314.00
2022-10-06T10:14:05.349Z,316.00
2022-10-06T10:15:05.354Z,313.00
2022-10-06T10:16:05.386Z,313.00
2022-10-06T10:17:05.321Z,315.00
2022-10-06T10:18:05.327Z,317.00
2022-10-06T10:19:05.310Z,324.00
2022-10-06T10:20:05.297Z,317.00
2022-10-06T10:21:05.281Z,320.00
2022-10-06T10:22:05.313Z,321.00
2022-10-06T10:23:05.273Z,323.00
2022-10-06T10:24:05.238Z,322.00
2022-10-06T10:25:05.231Z,324.00
2022-10-06T10:26:05.191Z,326.00
2022-10-06T10:27:05.201Z,323.00
2022-10-06T10:28:05.232Z,321.00
2022-10-06T10:29:05.189Z,322.00
2022-10-06T10:30:05.154Z,322.00
2022-10-06T10:31:05.187Z,321.00
2022-10-06T10:32:05.140Z,320.00
2022-10-06T10:33:05.117Z,321.00
2022-10-06T10:34:13.058Z,324.00
2022-10-06T10:35:05.124Z,324.00
2022-10-06T10:36:05.097Z,326.00
2022-10-06T10:37:05.134Z,326.00
2022-10-06T10:38:05.081Z,326.00
2022-10-06T10:39:05.030Z,322.00
2022-10-06T10:40:05.031Z,324.00
2022-10-06T10:41:05.037Z,328.00
2022-10-06T10:42:05.014Z,332.00
2022-10-06T10:43:05.004Z,333.00
2022-10-06T10:44:04.984Z,333.00
2022-10-06T10:45:04.971Z,333.00
2022-10-06T10:46:04.963Z,332.00
2022-10-06T10:47:05.009Z,330.00
2022-10-06T10:48:04.909Z,322.00
2022-10-06T10:49:04.927Z,319.00
2022-10-06T10:50:04.922Z,320.00
2022-10-06T10:51:04.879Z,323.00
2022-10-06T10:52:04.924Z,322.00
2022-10-06T10:53:04.893Z,322.00
2022-10-06T10:54:04.856Z,320.00
2022-10-06T10:55:04.895Z,321.00
2022-10-06T10:56:04.835Z,322.00
2022-10-06T10:57:04.820Z,325.00
2022-10-06T10:58:04.793Z,321.00
2022-10-06T10:59:04.778Z,320.00
2022-10-06T11:00:04.753Z,318.00
2022-10-06T11:01:04.791Z,316.00
2022-10-06T11:02:04.964Z,316.00
2022-10-06T11:03:04.720Z,316.00
2022-10-06T11:04:04.738Z,318.00
2022-10-06T11:05:04.713Z,320.00
2022-10-06T11:06:04.688Z,319.00
2022-10-06T11:07:04.689Z,321.00
2022-10-06T11:08:04.683Z,319.00
2022-10-06T11:09:04.679Z,317.00
2022-10-06T11:10:04.682Z,316.00
2022-10-06T11:11:04.694Z,313.00
2022-10-06T11:12:04.627Z,316.00
2022-10-06T11:13:04.648Z,317.00
2022-10-06T11:14:04.595Z,320.00
2022-10-06T11:15:04.591Z,316.00
2022-10-06T11:16:04.606Z,313.00
2022-10-06T11:17:04.578Z,315.00
2022-10-06T11:18:04.546Z,321.00
2022-10-06T11:19:04.574Z,323.00
2022-10-06T11:20:04.518Z,318.00
2022-10-06T11:21:04.508Z,314.00
2022-10-06T11:22:04.568Z,317.00
2022-10-06T11:23:04.517Z,328.00
2022-10-06T11:24:04.450Z,311.00
2022-10-06T11:25:04.521Z,308.00
2022-10-06T11:26:04.421Z,308.00
2022-10-06T11:27:04.417Z,307.00
2022-10-06T11:28:04.456Z,308.00
2022-10-06T11:29:04.420Z,309.00
2022-10-06T11:30:04.405Z,309.00
2022-10-06T11:31:04.410Z,308.00
2022-10-06T11:32:04.406Z,309.00
2022-10-06T11:33:04.381Z,309.00
2022-10-06T11:34:04.344Z,317.00
2022-10-06T11:35:04.311Z,318.00
2022-10-06T11:36:04.289Z,307.00
2022-10-06T11:37:04.285Z,306.00
2022-10-06T11:38:04.265Z,309.00
2022-10-06T11:39:04.309Z,311.00
2022-10-06T11:40:04.247Z,313.00
2022-10-06T11:41:09.322Z,311.00
2022-10-06T11:42:04.225Z,317.00
2022-10-06T11:43:04.232Z,314.00
2022-10-06T11:44:04.200Z,314.00
2022-10-06T11:45:04.195Z,315.00
2022-10-06T11:46:04.295Z,316.00
2022-10-06T11:47:04.152Z,317.00
2022-10-06T11:48:04.167Z,320.00
2022-10-06T11:49:04.144Z,318.00
2022-10-06T11:50:04.181Z,321.00
2022-10-06T11:51:04.098Z,321.00
2022-10-06T11:52:07.218Z,325.00
2022-10-06T11:53:04.183Z,325.00
2022-10-06T11:54:04.089Z,318.00
2022-10-06T11:55:04.055Z,316.00
2022-10-06T11:56:04.062Z,316.00
2022-10-06T11:57:04.045Z,317.00
2022-10-06T11:58:08.772Z,320.00
2022-10-06T11:59:04.005Z,321.00
2022-10-06T12:00:03.988Z,321.00
2022-10-06T12:01:03.994Z,322.00
2022-10-06T12:02:04.057Z,323.00
2022-10-06T12:03:04.028Z,321.00
2022-10-06T12:04:04.189Z,319.00
2022-10-06T12:05:03.919Z,317.00
2022-10-06T12:06:03.941Z,318.00
2022-10-06T12:07:03.907Z,318.00
2022-10-06T12:08:03.904Z,317.00
2022-10-06T12:09:03.908Z,319.00
2022-10-06T12:10:03.858Z,319.00
2022-10-06T12:11:03.880Z,320.00
2022-10-06T12:12:03.848Z,323.00
2022-10-06T12:13:09.318Z,323.00
2022-10-06T12:16:55.264Z,323.00
2022-10-06T12:17:19.055Z,320.00
2022-10-06T12:17:24.229Z,320.00
2022-10-06T12:18:23.660Z,319.00
2022-10-06T12:19:23.647Z,319.00
2022-10-06T12:20:23.631Z,318.00
2022-10-06T12:21:23.597Z,320.00
2022-10-06T12:22:23.610Z,320.00
2022-10-06T12:23:23.586Z,317.00
2022-10-06T12:24:23.560Z,317.00
2022-10-06T12:25:23.551Z,316.00
2022-10-06T12:26:23.553Z,316.00
2022-10-06T12:27:25.881Z,315.00
2022-10-06T12:28:23.541Z,315.00
2022-10-06T12:29:23.502Z,317.00